createdAt,value
2022-11-28T00:00:06.525Z,9.18
2022-11-28T00:02:36.442Z,8.52
2022-11-28T00:05:06.605Z,11.63
2022-11-28T00:07:36.461Z,8.90
2022-11-28T00:10:10.979Z,9.38
2022-11-28T00:12:40.851Z,8.10
2022-11-28T00:15:13.764Z,9.45
2022-11-28T00:17:43.596Z,9.63
2022-11-28T00:20:13.954Z,7.32
2022-11-28T00:22:43.838Z,8.55
2022-11-28T00:25:16.332Z,7.28
2022-11-28T00:27:46.169Z,8.95
2022-11-28T00:30:16.456Z,7.72
2022-11-28T00:32:46.278Z,8.90
2022-11-28T00:35:16.080Z,8.82
2022-11-28T00:37:45.946Z,8.32
2022-11-28T00:40:18.560Z,9.00
2022-11-28T00:42:48.368Z,7.45
2022-11-28T00:45:18.204Z,7.82
2022-11-28T00:47:49.209Z,8.07
2022-11-28T00:50:19.265Z,9.85
2022-11-28T00:52:49.152Z,9.48
2022-11-28T00:55:21.739Z,8.02
2022-11-28T00:57:51.565Z,8.15
2022-11-28T01:00:22.510Z,8.65
2022-11-28T01:02:52.352Z,7.60
2022-11-28T01:05:22.305Z,8.88
2022-11-28T01:07:52.176Z,8.88
2022-11-28T01:10:24.746Z,8.05
2022-11-28T01:12:54.571Z,9.77
2022-11-28T01:15:24.443Z,9.93
2022-11-28T01:17:54.235Z,9.00
2022-11-28T01:20:24.120Z,9.98
2022-11-28T01:22:53.908Z,9.13
2022-11-28T01:25:26.493Z,10.88
2022-11-28T01:27:56.389Z,10.50
2022-11-28T01:30:26.196Z,10.35
2022-11-28T01:32:56.099Z,10.85
2022-11-28T01:35:25.857Z,9.95
2022-11-28T01:37:56.384Z,9.05
2022-11-28T01:40:28.803Z,12.95
2022-11-28T01:42:58.693Z,10.52
2022-11-28T01:45:31.496Z,10.70
2022-11-28T01:48:06.245Z,9.52
2022-11-28T01:50:37.935Z,10.65
2022-11-28T01:53:11.254Z,12.10
2022-11-28T01:55:49.649Z,9.38
2022-11-28T01:58:19.749Z,9.93
2022-11-28T02:00:49.941Z,9.48
2022-11-28T02:03:24.380Z,9.40
2022-11-28T02:05:55.648Z,9.15
2022-11-28T02:08:28.048Z,9.00
2022-11-28T02:11:23.390Z,10.48
2022-11-28T02:14:01.096Z,8.55
2022-11-28T02:16:48.804Z,10.45
2022-11-28T02:19:40.893Z,11.30
2022-11-28T02:22:19.576Z,10.48
2022-11-28T02:25:14.474Z,9.35
2022-11-28T02:28:09.185Z,8.88
2022-11-28T02:30:52.487Z,6.82
2022-11-28T02:33:30.619Z,9.57
2022-11-28T02:36:09.382Z,8.55
2022-11-28T02:38:49.756Z,7.85
2022-11-28T02:41:25.718Z,7.40
2022-11-28T02:44:04.355Z,10.23
2022-11-28T02:46:42.015Z,7.50
2022-11-28T02:49:19.606Z,7.80
2022-11-28T02:51:53.201Z,7.43
2022-11-28T02:54:24.919Z,8.80
2022-11-28T02:56:56.993Z,7.45
2022-11-28T02:59:35.593Z,7.07
2022-11-28T03:02:06.453Z,8.75
2022-11-28T03:04:47.967Z,7.60
2022-11-28T03:07:30.469Z,10.30
2022-11-28T03:10:10.692Z,7.28
2022-11-28T03:12:54.133Z,8.48
2022-11-28T03:15:27.052Z,6.88
2022-11-28T03:18:05.300Z,6.55
2022-11-28T03:20:46.467Z,8.27
2022-11-28T03:23:19.354Z,8.55
2022-11-28T03:26:00.541Z,8.70
2022-11-28T03:28:42.052Z,9.98
2022-11-28T03:31:17.083Z,8.32
2022-11-28T03:33:51.659Z,9.52
2022-11-28T03:39:01.849Z,9.70
2022-11-28T03:41:39.022Z,8.90
2022-11-28T03:44:14.113Z,8.30
2022-11-28T03:46:48.505Z,9.25
2022-11-28T03:49:24.264Z,8.18
2022-11-28T03:52:00.364Z,8.65
2022-11-28T03:54:37.428Z,9.43
2022-11-28T03:57:15.851Z,10.07
2022-11-28T03:59:48.373Z,9.50
2022-11-28T04:02:25.072Z,10.20
2022-11-28T04:05:01.015Z,9.23
2022-11-28T04:07:41.311Z,8.45
2022-11-28T04:10:18.200Z,11.40
2022-11-28T04:12:55.570Z,9.73
2022-11-28T04:15:32.667Z,7.90
2022-11-28T04:18:09.916Z,9.57
2022-11-28T04:20:44.605Z,9.70
2022-11-28T04:23:20.956Z,9.68
2022-11-28T04:25:56.386Z,9.50
2022-11-28T04:28:28.924Z,11.00
2022-11-28T04:31:01.472Z,8.57
2022-11-28T04:33:35.741Z,9.25
2022-11-28T04:36:07.725Z,9.05
2022-11-28T04:38:41.572Z,9.90
2022-11-28T04:41:16.764Z,9.00
2022-11-28T04:43:51.383Z,9.77
2022-11-28T04:48:55.444Z,10.02
2022-11-28T04:51:30.177Z,9.23
2022-11-28T04:54:05.524Z,9.45
2022-11-28T04:56:42.793Z,9.05
2022-11-28T04:59:14.952Z,6.95
2022-11-28T05:01:48.369Z,9.55
2022-11-28T05:04:19.146Z,6.82
2022-11-28T05:06:48.919Z,9.02
2022-11-28T05:09:21.295Z,9.18
2022-11-28T05:11:51.064Z,9.13
2022-11-28T05:14:20.864Z,9.63
2022-11-28T05:16:50.808Z,10.05
2022-11-28T05:19:20.814Z,8.65
2022-11-28T05:21:53.143Z,8.48
2022-11-28T05:24:30.767Z,13.55
2022-11-28T05:27:02.051Z,9.50
2022-11-28T05:29:32.007Z,9.57
2022-11-28T05:32:01.944Z,9.27
2022-11-28T05:34:31.955Z,8.27
2022-11-28T05:37:01.690Z,8.73
2022-11-28T05:39:34.424Z,10.35
2022-11-28T05:42:04.228Z,10.05
2022-11-28T05:44:34.016Z,11.57
2022-11-28T05:47:06.448Z,8.38
2022-11-28T05:49:36.230Z,8.85
2022-11-28T05:52:06.178Z,9.90
2022-11-28T05:54:38.615Z,7.10
2022-11-28T05:57:09.139Z,9.75
2022-11-28T05:59:39.133Z,10.65
2022-11-28T06:02:09.064Z,9.30
2022-11-28T06:04:41.928Z,13.55
2022-11-28T06:07:11.877Z,8.40
2022-11-28T06:09:44.453Z,10.18
2022-11-28T06:12:14.476Z,11.38
2022-11-28T06:14:44.222Z,9.43
2022-11-28T06:17:13.971Z,10.70
2022-11-28T06:19:43.948Z,12.38
2022-11-28T06:22:14.076Z,12.73
2022-11-28T06:24:46.508Z,15.13
2022-11-28T06:27:16.503Z,14.35
2022-11-28T06:29:46.319Z,13.77
2022-11-28T06:32:21.732Z,14.30
2022-11-28T06:34:51.932Z,10.55
2022-11-28T06:37:21.747Z,11.35
2022-11-28T06:39:54.112Z,14.90
2022-11-28T06:42:23.963Z,13.00
2022-11-28T06:44:56.440Z,12.05
2022-11-28T06:47:26.293Z,11.13
2022-11-28T06:49:56.125Z,14.27
2022-11-28T06:52:26.071Z,11.43
2022-11-28T06:54:58.459Z,11.77
2022-11-28T06:57:28.591Z,11.88
2022-11-28T06:59:58.340Z,13.80
2022-11-28T07:02:28.217Z,11.02
2022-11-28T07:04:58.128Z,10.90
2022-11-28T07:07:28.070Z,13.27
2022-11-28T07:10:00.423Z,11.80
2022-11-28T07:12:30.220Z,11.20
2022-11-28T07:15:00.072Z,15.30
2022-11-28T07:17:30.220Z,11.88
2022-11-28T07:20:00.005Z,13.18
2022-11-28T07:22:29.910Z,12.32
2022-11-28T07:25:02.343Z,12.65
2022-11-28T07:27:32.196Z,15.23
2022-11-28T07:30:02.061Z,13.38
2022-11-28T07:32:33.564Z,12.25
2022-11-28T07:35:04.617Z,15.95
2022-11-28T07:37:34.445Z,10.88
2022-11-28T07:40:08.312Z,18.25
2022-11-28T07:42:38.153Z,14.23
2022-11-28T07:45:09.416Z,16.67
2022-11-28T07:47:39.239Z,14.93
2022-11-28T07:50:10.551Z,14.85
2022-11-28T07:52:40.381Z,16.02
2022-11-28T07:55:13.091Z,15.43
2022-11-28T07:57:42.936Z,13.88
2022-11-28T08:00:13.810Z,12.90
2022-11-28T08:02:43.618Z,14.98
2022-11-28T08:05:15.382Z,15.10
2022-11-28T08:07:45.301Z,15.45
2022-11-28T08:10:18.060Z,14.63
2022-11-28T08:12:47.953Z,14.07
2022-11-28T08:15:17.760Z,31.42
2022-11-28T08:17:47.594Z,15.05
2022-11-28T08:20:17.372Z,17.52
2022-11-28T08:22:47.193Z,11.32
2022-11-28T08:25:19.668Z,14.13
2022-11-28T08:27:49.414Z,12.93
2022-11-28T08:30:19.617Z,12.18
2022-11-28T08:32:49.935Z,15.15
2022-11-28T08:35:19.960Z,14.20
2022-11-28T08:37:49.817Z,13.80
2022-11-28T08:40:22.592Z,11.73
2022-11-28T08:42:52.499Z,9.77
2022-11-28T08:45:22.427Z,11.52
2022-11-28T08:47:52.559Z,12.77
2022-11-28T08:50:22.553Z,11.38
2022-11-28T08:52:52.757Z,12.05
2022-11-28T08:55:32.344Z,12.65
2022-11-28T08:58:02.663Z,11.32
2022-11-28T09:00:32.468Z,16.50
2022-11-28T09:03:02.396Z,12.65
2022-11-28T09:05:32.782Z,12.55
2022-11-28T09:08:02.632Z,9.73
2022-11-28T09:10:39.158Z,17.05
2022-11-28T09:13:09.884Z,13.10
2022-11-28T09:15:43.406Z,14.68
2022-11-28T09:18:15.027Z,11.68
2022-11-28T09:20:45.200Z,11.02
2022-11-28T09:23:14.984Z,11.68
2022-11-28T09:25:49.347Z,12.45
2022-11-28T09:28:19.100Z,13.60
2022-11-28T09:30:57.414Z,16.70
2022-11-28T09:33:27.539Z,14.23
2022-11-28T09:35:58.362Z,11.40
2022-11-28T09:38:28.546Z,12.95
2022-11-28T09:41:00.928Z,13.48
2022-11-28T09:43:34.347Z,10.45
2022-11-28T09:46:10.994Z,14.02
2022-11-28T09:48:46.110Z,13.80
2022-11-28T09:51:24.483Z,12.15
2022-11-28T09:54:05.019Z,13.40
2022-11-28T09:56:38.062Z,12.40
2022-11-28T09:59:15.996Z,10.95
2022-11-28T10:01:52.843Z,13.65
2022-11-28T10:04:31.609Z,15.80
2022-11-28T10:07:06.483Z,17.50
2022-11-28T10:09:50.784Z,12.45
2022-11-28T10:12:33.956Z,10.05
2022-11-28T10:15:18.384Z,12.95
2022-11-28T10:17:56.171Z,11.32
2022-11-28T10:20:29.796Z,14.75
2022-11-28T10:23:03.607Z,14.27
2022-11-28T10:25:37.736Z,10.68
2022-11-28T10:28:15.635Z,14.93
2022-11-28T10:30:50.653Z,11.23
2022-11-28T10:33:27.988Z,14.15
2022-11-28T10:35:59.426Z,12.60
2022-11-28T10:38:31.319Z,22.33
2022-11-28T10:41:07.520Z,14.15
2022-11-28T10:43:50.225Z,12.23
2022-11-28T10:46:44.365Z,12.68
2022-11-28T10:49:29.289Z,10.45
2022-11-28T10:54:53.564Z,8.68
2022-11-28T10:57:26.736Z,11.90
2022-11-28T11:00:14.940Z,10.63
2022-11-28T11:02:48.905Z,12.02
2022-11-28T11:05:21.828Z,12.50
2022-11-28T11:07:54.858Z,21.30
2022-11-28T11:10:29.394Z,13.02
2022-11-28T11:13:00.594Z,12.73
2022-11-28T11:15:36.238Z,12.88
2022-11-28T11:18:22.227Z,13.60
2022-11-28T11:20:52.107Z,9.43
2022-11-28T11:23:24.216Z,13.48
2022-11-28T11:25:58.316Z,13.88
2022-11-28T11:28:42.059Z,11.95
2022-11-28T11:31:24.091Z,12.00
2022-11-28T11:33:56.897Z,12.90
2022-11-28T11:36:29.759Z,11.68
2022-11-28T11:39:18.544Z,11.10
2022-11-28T11:41:50.495Z,14.00
2022-11-28T11:44:34.327Z,11.88
2022-11-28T11:47:08.890Z,12.02
2022-11-28T11:49:40.175Z,11.63
2022-11-28T11:52:19.494Z,16.38
2022-11-28T11:55:06.082Z,11.13
2022-11-28T11:57:40.720Z,10.40
2022-11-28T12:00:18.487Z,13.38
2022-11-28T12:02:56.678Z,14.85
2022-11-28T12:05:46.403Z,11.60
2022-11-28T12:08:31.725Z,13.60
2022-11-28T12:11:13.576Z,13.05
2022-11-28T12:13:43.736Z,13.70
2022-11-28T12:16:31.822Z,13.10
2022-11-28T12:19:15.964Z,13.35
2022-11-28T12:21:58.695Z,14.35
2022-11-28T12:24:36.735Z,12.07
2022-11-28T12:27:17.143Z,12.93
2022-11-28T12:29:58.780Z,24.27
2022-11-28T12:32:44.012Z,14.63
2022-11-28T12:35:29.761Z,13.35
2022-11-28T12:38:11.903Z,15.80
2022-11-28T12:40:53.800Z,14.45
2022-11-28T12:43:36.509Z,15.52
2022-11-28T12:46:14.090Z,14.10
2022-11-28T12:48:53.889Z,12.35
2022-11-28T12:51:37.450Z,15.18
2022-11-28T12:54:25.097Z,14.95
2022-11-28T12:57:00.947Z,16.23
2022-11-28T12:59:37.791Z,12.60
2022-11-28T13:02:29.373Z,13.20
2022-11-28T13:05:22.500Z,13.15
2022-11-28T13:08:17.561Z,14.43
2022-11-28T13:10:53.077Z,13.65
2022-11-28T13:13:29.568Z,11.82
2022-11-28T13:16:10.660Z,12.63
2022-11-28T13:18:43.748Z,11.85
2022-11-28T13:21:24.847Z,16.10
2022-11-28T13:24:07.082Z,13.45
2022-11-28T13:26:58.955Z,13.18
2022-11-28T13:29:36.545Z,14.98
2022-11-28T13:32:15.947Z,12.15
2022-11-28T13:34:46.863Z,17.38
2022-11-28T13:40:20.624Z,15.90
2022-11-28T13:43:07.917Z,13.07
2022-11-28T13:45:40.833Z,13.75
2022-11-28T13:51:33.132Z,16.15
2022-11-28T13:54:48.908Z,12.45
2022-11-28T13:57:31.789Z,15.73
2022-11-28T14:00:09.963Z,18.02
2022-11-28T14:02:45.355Z,16.33
2022-11-28T14:05:28.321Z,13.48
2022-11-28T14:07:59.344Z,16.65
2022-11-28T14:10:49.198Z,14.60
2022-11-28T14:13:48.436Z,15.05
2022-11-28T14:16:32.754Z,12.70
2022-11-28T14:19:16.032Z,16.60
2022-11-28T14:21:59.922Z,16.70
2022-11-28T14:24:44.127Z,15.90
2022-11-28T14:27:23.512Z,13.90
2022-11-28T14:29:58.640Z,18.17
2022-11-28T14:32:36.201Z,14.38
2022-11-28T14:35:09.424Z,11.38
2022-11-28T14:37:52.905Z,10.73
2022-11-28T14:41:11.722Z,11.88
2022-11-28T14:43:45.971Z,12.52
2022-11-28T14:46:30.461Z,12.52
2022-11-28T14:49:20.541Z,11.85
2022-11-28T14:55:20.572Z,13.80
2022-11-28T14:57:59.555Z,13.20
2022-11-28T15:00:31.563Z,12.48
2022-11-28T15:03:25.602Z,12.45
2022-11-28T15:06:00.577Z,12.43
2022-11-28T15:08:56.515Z,14.82
2022-11-28T15:11:43.596Z,17.67
2022-11-28T15:14:21.411Z,10.85
2022-11-28T15:16:53.235Z,15.93
2022-11-28T15:19:33.527Z,18.42
2022-11-28T15:22:04.268Z,11.77
2022-11-28T15:24:36.161Z,9.98
2022-11-28T15:27:27.033Z,11.80
2022-11-28T15:29:58.327Z,16.52
2022-11-28T15:32:30.844Z,37.75
2022-11-28T15:35:12.570Z,15.82
2022-11-28T15:37:48.394Z,12.88
2022-11-28T15:40:22.780Z,17.02
2022-11-28T15:45:27.845Z,12.75
2022-11-28T15:47:58.965Z,11.15
2022-11-28T15:50:33.942Z,15.60
2022-11-28T15:53:05.700Z,16.75
2022-11-28T15:55:36.731Z,14.90
2022-11-28T15:58:14.692Z,12.40
2022-11-28T16:00:47.800Z,18.45
2022-11-28T16:03:21.561Z,17.48
2022-11-28T16:05:56.111Z,26.52
2022-11-28T16:10:59.224Z,21.98
2022-11-28T16:13:31.474Z,17.75
2022-11-28T16:16:04.210Z,14.45
2022-11-28T16:18:34.511Z,15.52
2022-11-28T16:21:07.221Z,19.60
2022-11-28T16:23:38.724Z,15.15
2022-11-28T16:26:10.875Z,17.70
2022-11-28T16:28:42.868Z,18.35
2022-11-28T16:31:21.024Z,17.73
2022-11-28T16:33:52.065Z,17.42
2022-11-28T16:36:27.060Z,17.65
2022-11-28T16:39:08.474Z,16.70
2022-11-28T16:41:38.465Z,24.15
2022-11-28T16:44:13.979Z,26.05
2022-11-28T16:46:51.358Z,22.25
2022-11-28T16:49:35.499Z,24.13
2022-11-28T16:52:45.625Z,20.48
2022-11-28T16:55:40.460Z,22.77
2022-11-28T16:58:17.097Z,17.52
2022-11-28T17:00:50.388Z,21.10
2022-11-28T17:03:51.332Z,20.88
2022-11-28T17:06:28.117Z,19.50
2022-11-28T17:09:00.552Z,17.42
2022-11-28T17:11:34.250Z,17.92
2022-11-28T17:14:07.452Z,17.48
2022-11-28T17:16:42.932Z,25.33
2022-11-28T17:19:12.936Z,21.60
2022-11-28T17:21:45.536Z,19.98
2022-11-28T17:24:21.436Z,20.98
2022-11-28T17:26:51.608Z,21.00
2022-11-28T17:29:22.192Z,22.52
2022-11-28T17:31:55.162Z,24.17
2022-11-28T17:34:26.768Z,24.27
2022-11-28T17:36:56.602Z,28.85
2022-11-28T17:39:30.243Z,23.60
2022-11-28T17:42:01.002Z,25.38
2022-11-28T17:44:32.819Z,23.23
2022-11-28T17:47:03.623Z,22.85
2022-11-28T17:49:33.743Z,22.42
2022-11-28T17:52:03.692Z,21.77
2022-11-28T17:54:36.019Z,25.75
2022-11-28T17:57:05.832Z,23.95
2022-11-28T17:59:37.650Z,21.13
2022-11-28T18:02:07.689Z,20.95
2022-11-28T18:04:37.615Z,23.17
2022-11-28T18:07:07.687Z,20.98
2022-11-28T18:09:43.117Z,28.52
2022-11-28T18:12:13.243Z,38.67
2022-11-28T18:14:43.219Z,46.15
2022-11-28T18:17:12.961Z,39.03
2022-11-28T18:19:43.175Z,38.38
2022-11-28T18:22:13.080Z,36.00
2022-11-28T18:24:45.463Z,45.65
2022-11-28T18:27:15.296Z,36.83
2022-11-28T18:29:45.398Z,42.33
2022-11-28T18:32:15.394Z,46.35
2022-11-28T18:34:45.134Z,43.85
2022-11-28T18:37:14.928Z,43.38
2022-11-28T18:39:47.356Z,33.75
2022-11-28T18:42:18.021Z,34.03
2022-11-28T18:44:47.947Z,33.83
2022-11-28T18:47:17.672Z,28.88
2022-11-28T18:49:47.491Z,27.35
2022-11-28T18:52:17.249Z,22.55
2022-11-28T18:54:49.684Z,22.60
2022-11-28T18:57:19.496Z,22.35
2022-11-28T18:59:54.770Z,22.30
2022-11-28T19:02:25.176Z,25.40
2022-11-28T19:04:54.983Z,19.73
2022-11-28T19:07:25.335Z,22.00
2022-11-28T19:09:57.749Z,21.55
2022-11-28T19:12:27.853Z,25.85
2022-11-28T19:15:02.052Z,24.73
2022-11-28T19:17:32.445Z,26.58
2022-11-28T19:20:02.217Z,21.50
2022-11-28T19:22:31.963Z,25.38
2022-11-28T19:25:04.391Z,25.95
2022-11-28T19:27:34.203Z,21.63
2022-11-28T19:30:03.965Z,23.83
2022-11-28T19:32:33.722Z,22.00
2022-11-28T19:35:03.576Z,21.73
2022-11-28T19:37:33.589Z,21.83
2022-11-28T19:40:06.455Z,22.25
2022-11-28T19:42:36.711Z,23.08
2022-11-28T19:45:07.603Z,20.23
2022-11-28T19:47:37.462Z,21.40
2022-11-28T19:50:09.659Z,24.88
2022-11-28T19:52:39.413Z,23.05
2022-11-28T19:55:12.531Z,25.02
2022-11-28T19:57:42.318Z,25.65
2022-11-28T20:00:13.703Z,26.13
2022-11-28T20:02:43.639Z,28.85
2022-11-28T20:05:13.432Z,26.70
2022-11-28T20:07:43.245Z,29.45
2022-11-28T20:10:15.959Z,27.45
2022-11-28T20:12:45.785Z,26.73
2022-11-28T20:15:18.311Z,26.45
2022-11-28T20:17:48.336Z,26.08
2022-11-28T20:20:18.572Z,22.85
2022-11-28T20:22:48.416Z,26.10
2022-11-28T20:25:21.242Z,24.23
2022-11-28T20:27:51.072Z,27.40
2022-11-28T20:30:21.173Z,23.50
2022-11-28T20:32:50.967Z,27.83
2022-11-28T20:35:20.770Z,24.05
2022-11-28T20:37:50.540Z,26.67
2022-11-28T20:40:22.925Z,28.83
2022-11-28T20:42:52.715Z,26.20
2022-11-28T20:45:22.619Z,28.40
2022-11-28T20:47:52.375Z,32.13
2022-11-28T20:50:22.256Z,27.13
2022-11-28T20:52:52.003Z,29.05
2022-11-28T20:55:24.831Z,31.83
2022-11-28T20:57:54.592Z,30.00
2022-11-28T21:00:26.749Z,32.80
2022-11-28T21:02:56.795Z,30.33
2022-11-28T21:05:26.573Z,30.83
2022-11-28T21:07:56.406Z,29.25
2022-11-28T21:10:28.870Z,30.45
2022-11-28T21:12:58.689Z,28.85
2022-11-28T21:15:28.504Z,28.05
2022-11-28T21:17:58.297Z,27.50
2022-11-28T21:20:28.063Z,28.75
2022-11-28T21:22:58.410Z,26.58
2022-11-28T21:25:30.786Z,25.90
2022-11-28T21:28:00.567Z,29.40
2022-11-28T21:30:30.352Z,28.20
2022-11-28T21:33:00.196Z,32.03
2022-11-28T21:35:29.923Z,29.38
2022-11-28T21:37:59.657Z,29.73
2022-11-28T21:40:32.128Z,27.20
2022-11-28T21:43:02.492Z,30.92
2022-11-28T21:45:32.416Z,31.80
2022-11-28T21:48:02.305Z,27.45
2022-11-28T21:50:32.115Z,29.77
2022-11-28T21:53:01.887Z,33.70
2022-11-28T21:55:35.052Z,36.83
2022-11-28T21:58:04.848Z,35.10
2022-11-28T22:00:52.591Z,32.67
2022-11-28T22:03:23.766Z,31.20
2022-11-28T22:05:54.353Z,34.08
2022-11-28T22:08:24.283Z,34.92
2022-11-28T22:11:00.825Z,31.95
2022-11-28T22:13:30.876Z,35.45
2022-11-28T22:16:00.887Z,35.30
2022-11-28T22:18:32.225Z,34.42
2022-11-28T22:21:22.401Z,33.75
2022-11-28T22:23:54.832Z,29.27
2022-11-28T22:26:27.369Z,28.90
2022-11-28T22:28:58.792Z,29.85
2022-11-28T22:31:28.690Z,33.00
2022-11-28T22:33:58.627Z,32.63
2022-11-28T22:36:28.397Z,31.25
2022-11-28T22:38:59.648Z,31.02
2022-11-28T22:41:32.023Z,36.95
2022-11-28T22:44:04.132Z,31.17
2022-11-28T22:46:34.570Z,31.80
2022-11-28T22:49:05.193Z,30.67
2022-11-28T22:51:35.031Z,36.25
2022-11-28T22:54:05.942Z,34.47
2022-11-28T22:56:38.334Z,34.38
2022-11-28T22:59:08.519Z,31.20
2022-11-28T23:01:38.280Z,33.88
2022-11-28T23:04:08.239Z,34.95
2022-11-28T23:06:38.921Z,35.67
2022-11-28T23:09:11.397Z,37.00
2022-11-28T23:11:44.129Z,34.30
2022-11-28T23:14:15.895Z,37.05
2022-11-28T23:16:46.931Z,31.08
2022-11-28T23:19:19.324Z,34.47
2022-11-28T23:21:51.087Z,36.08
2022-11-28T23:24:23.255Z,34.72
2022-11-28T23:26:56.132Z,32.05
2022-11-28T23:29:25.862Z,36.75
2022-11-28T23:31:55.703Z,36.65
2022-11-28T23:34:25.540Z,31.90
2022-11-28T23:36:55.346Z,35.72
2022-11-28T23:39:25.951Z,37.75
2022-11-28T23:41:58.941Z,35.08
2022-11-28T23:44:28.819Z,37.00
2022-11-28T23:46:58.838Z,36.33
2022-11-28T23:49:28.639Z,37.10
2022-11-28T23:51:58.799Z,33.03
2022-11-28T23:54:28.614Z,36.30
2022-11-28T23:57:00.949Z,36.85
2022-11-28T23:59:30.927Z,43.03
